Terminal Aerodrome Forecast
Issued by NWS

Home | Current Version | Previous Version | Text Only | Print | Product List | Glossary On
Versions: 1 2 3 4 5 6 7 8 9 10 11 12 13 14
000
FTUS46 KSGX 290708 AAA
TAFCRQ
TAF AMD
KCRQ 290708Z 2907/3006 VRB04KT P6SM SCT004
      TEMPO 2907/2909 6SM BR BKN004
     FM290900 VRB03KT 2SM BR BKN003
     FM291530 22005KT P6SM FEW006
     FM291900 25011KT P6SM SKC
     FM300200 VRB05KT P6SM FEW007=

USA.gov is the U.S. government's official web portal to all federal, state and local government web resources and services.